PWSweather.com
Personal Weather Stations
Station Observations
THRCKWTHR1
Aveley, EssexGB RM154EL

AveleyEssexGB RM154EL

Lat: 51.5000552, Lon: 0.2501753000000235

Elevation: 98.5

Station Type: Oregon Scientific WMR88

www.facebook.com/thurrockweather

High Low Average
Temperature 48.7°F9.3°C 36.7°F2.6°C 41.2°F5.1°C
Dew Point 46.0°F7.8°C 35.8°F2.1°C 38.5°F3.6°C
Winds 11.5 mph 18.5 kmh Calm Calm 4.0 mph NE6.4 kmh NE
Wind Gusts 12.0 mph19.3 kmh 3.5 mph5.6 kmh 7.0 mph11.3 kmh
Humidity 98% 74% 91%
Pressure 29.98 in1015.2 mb 29.45 in997.3 mb -
Precipitation 0.00 in0.0 mm - -
Hour Temp Dew Point Humidity Winds Wind Gusts Pressure Precip Precip Rate Daily Precip Total
12:00 AM 38.1°F3.4°C 37.6°F3.1°C 98% 3.5 mph NE5.6 kmh NE 4.6 mph7.4 kmh 29.98 in1015.2 mb 0.00 in0.0 mm 0.00 in0.0 mm 0.00 in0.0 mm
12:05 AM 38.1°F3.4°C 37.6°F3.1°C 98% 4.1 mph NNE6.6 kmh NNE 4.4 mph7.1 kmh 29.98 in1015.2 mb 0.00 in0.0 mm 0.00 in0.0 mm 0.00 in0.0 mm
12:10 AM 38.1°F3.4°C 37.6°F3.1°C 98% 3.3 mph N5.3 kmh N 4.4 mph7.1 kmh 29.98 in1015.2 mb 0.00 in0.0 mm 0.00 in0.0 mm 0.00 in0.0 mm
12:15 AM 38.1°F3.4°C 37.6°F3.1°C 98% 3.8 mph N6.1 kmh N 5.2 mph8.4 kmh 29.98 in1015.2 mb 0.00 in0.0 mm 0.00 in0.0 mm 0.00 in0.0 mm
12:20 AM 38.1°F3.4°C 37.6°F3.1°C 98% Calm Calm 6.8 mph10.9 kmh 29.98 in1015.2 mb 0.00 in0.0 mm 0.00 in0.0 mm 0.00 in0.0 mm
12:25 AM 37.9°F3.3°C 37.4°F3.0°C 98% 1.6 mph N2.6 kmh N 6.8 mph10.9 kmh 29.98 in1015.2 mb 0.00 in0.0 mm 0.00 in0.0 mm 0.00 in0.0 mm
12:30 AM 38.1°F3.4°C 37.6°F3.1°C 98% 4.6 mph N7.4 kmh N 5.2 mph8.4 kmh 29.98 in1015.2 mb 0.00 in0.0 mm 0.00 in0.0 mm 0.00 in0.0 mm
12:35 AM 38.1°F3.4°C 37.6°F3.1°C 98% 3.0 mph NE4.8 kmh NE 4.6 mph7.4 kmh 29.98 in1015.2 mb 0.00 in0.0 mm 0.00 in0.0 mm 0.00 in0.0 mm
12:40 AM 37.9°F3.3°C 37.4°F3.0°C 98% Calm Calm 7.4 mph11.9 kmh 29.98 in1015.2 mb 0.00 in0.0 mm 0.00 in0.0 mm 0.00 in0.0 mm
12:45 AM 37.9°F3.3°C 37.4°F3.0°C 98% Calm Calm 7.4 mph11.9 kmh 29.95 in1014.2 mb 0.00 in0.0 mm 0.00 in0.0 mm 0.00 in0.0 mm
12:50 AM 38.1°F3.4°C 37.6°F3.1°C 98% 1.4 mph NNE2.3 kmh NNE 4.1 mph6.6 kmh 29.95 in1014.2 mb 0.00 in0.0 mm 0.00 in0.0 mm 0.00 in0.0 mm
12:55 AM 38.1°F3.4°C 37.6°F3.1°C 98% 2.7 mph NNE4.3 kmh NNE 7.1 mph11.4 kmh 29.95 in1014.2 mb 0.00 in0.0 mm 0.00 in0.0 mm 0.00 in0.0 mm
01:00 AM 38.1°F3.4°C 37.6°F3.1°C 98% 1.6 mph NNE2.6 kmh NNE 7.1 mph11.4 kmh 29.95 in1014.2 mb 0.00 in0.0 mm 0.00 in0.0 mm 0.00 in0.0 mm
01:05 AM 38.3°F3.5°C 37.8°F3.2°C 98% 4.9 mph NNE7.9 kmh NNE 4.9 mph7.9 kmh 29.95 in1014.2 mb 0.00 in0.0 mm 0.00 in0.0 mm 0.00 in0.0 mm
01:10 AM 38.3°F3.5°C 37.8°F3.2°C 98% 4.9 mph NNE7.9 kmh NNE 4.9 mph7.9 kmh 29.95 in1014.2 mb 0.00 in0.0 mm 0.00 in0.0 mm 0.00 in0.0 mm
01:15 AM 38.3°F3.5°C 37.8°F3.2°C 98% 5.2 mph NE8.4 kmh NE 6.0 mph9.7 kmh 29.95 in1014.2 mb 0.00 in0.0 mm 0.00 in0.0 mm 0.00 in0.0 mm
01:20 AM 38.3°F3.5°C 37.8°F3.2°C 98% Calm Calm 6.0 mph9.7 kmh 29.95 in1014.2 mb 0.00 in0.0 mm 0.00 in0.0 mm 0.00 in0.0 mm
01:25 AM 38.3°F3.5°C 37.8°F3.2°C 98% 3.0 mph ENE4.8 kmh ENE 5.2 mph8.4 kmh 29.92 in1013.2 mb 0.00 in0.0 mm 0.00 in0.0 mm 0.00 in0.0 mm
01:30 AM 38.1°F3.4°C 37.6°F3.1°C 98% 1.1 mph NE1.8 kmh NE 4.9 mph7.9 kmh 29.92 in1013.2 mb 0.00 in0.0 mm 0.00 in0.0 mm 0.00 in0.0 mm
01:35 AM 38.1°F3.4°C 37.6°F3.1°C 98% 3.3 mph N5.3 kmh N 7.4 mph11.9 kmh 29.92 in1013.2 mb 0.00 in0.0 mm 0.00 in0.0 mm 0.00 in0.0 mm
01:40 AM 38.1°F3.4°C 37.6°F3.1°C 98% 1.9 mph N3.1 kmh N 7.4 mph11.9 kmh 29.92 in1013.2 mb 0.00 in0.0 mm 0.00 in0.0 mm 0.00 in0.0 mm
01:45 AM 37.9°F3.3°C 37.4°F3.0°C 98% 3.3 mph N5.3 kmh N 4.6 mph7.4 kmh 29.92 in1013.2 mb 0.00 in0.0 mm 0.00 in0.0 mm 0.00 in0.0 mm
01:50 AM 37.9°F3.3°C 37.4°F3.0°C 98% 4.9 mph N7.9 kmh N 6.0 mph9.7 kmh 29.92 in1013.2 mb 0.00 in0.0 mm 0.00 in0.0 mm 0.00 in0.0 mm
01:55 AM 37.8°F3.2°C 37.2°F2.9°C 98% 2.5 mph N4.0 kmh N 6.0 mph9.7 kmh 29.92 in1013.2 mb 0.00 in0.0 mm 0.00 in0.0 mm 0.00 in0.0 mm
02:00 AM 37.8°F3.2°C 37.2°F2.9°C 98% 1.6 mph NE2.6 kmh NE 5.2 mph8.4 kmh 29.92 in1013.2 mb 0.00 in0.0 mm 0.00 in0.0 mm 0.00 in0.0 mm
02:05 AM 37.8°F3.2°C 37.2°F2.9°C 98% 5.2 mph NE8.4 kmh NE 7.1 mph11.4 kmh 29.92 in1013.2 mb 0.00 in0.0 mm 0.00 in0.0 mm 0.00 in0.0 mm
02:10 AM 37.8°F3.2°C 37.2°F2.9°C 98% 4.4 mph NE7.1 kmh NE 7.1 mph11.4 kmh 29.92 in1013.2 mb 0.00 in0.0 mm 0.00 in0.0 mm 0.00 in0.0 mm
02:15 AM 37.6°F3.1°C 37.1°F2.8°C 98% 3.8 mph NNE6.1 kmh NNE 4.4 mph7.1 kmh 29.92 in1013.2 mb 0.00 in0.0 mm 0.00 in0.0 mm 0.00 in0.0 mm
02:20 AM 37.6°F3.1°C 37.1°F2.8°C 98% 3.0 mph NE4.8 kmh NE 4.4 mph7.1 kmh 29.92 in1013.2 mb 0.00 in0.0 mm 0.00 in0.0 mm 0.00 in0.0 mm
02:25 AM 37.6°F3.1°C 37.1°F2.8°C 98% Calm Calm 3.5 mph5.6 kmh 29.92 in1013.2 mb 0.00 in0.0 mm 0.00 in0.0 mm 0.00 in0.0 mm
02:30 AM 37.6°F3.1°C 37.1°F2.8°C 98% 2.7 mph NNE4.3 kmh NNE 3.5 mph5.6 kmh 29.92 in1013.2 mb 0.00 in0.0 mm 0.00 in0.0 mm 0.00 in0.0 mm
02:35 AM 37.4°F3.0°C 36.9°F2.7°C 98% 3.8 mph NE6.1 kmh NE 3.8 mph6.1 kmh 29.92 in1013.2 mb 0.00 in0.0 mm 0.00 in0.0 mm 0.00 in0.0 mm
02:40 AM 37.4°F3.0°C 36.9°F2.7°C 98% 3.8 mph NE6.1 kmh NE 3.8 mph6.1 kmh 29.92 in1013.2 mb 0.00 in0.0 mm 0.00 in0.0 mm 0.00 in0.0 mm
02:45 AM 37.4°F3.0°C 36.9°F2.7°C 98% 2.7 mph NE4.3 kmh NE 4.6 mph7.4 kmh 29.92 in1013.2 mb 0.00 in0.0 mm 0.00 in0.0 mm 0.00 in0.0 mm
02:50 AM 37.4°F3.0°C 36.9°F2.7°C 98% Calm Calm 4.6 mph7.4 kmh 29.92 in1013.2 mb 0.00 in0.0 mm 0.00 in0.0 mm 0.00 in0.0 mm
02:55 AM 37.4°F3.0°C 36.9°F2.7°C 98% 2.5 mph N4.0 kmh N 3.8 mph6.1 kmh 29.92 in1013.2 mb 0.00 in0.0 mm 0.00 in0.0 mm 0.00 in0.0 mm
03:00 AM 37.4°F3.0°C 36.9°F2.7°C 98% Calm Calm 4.9 mph7.9 kmh 29.92 in1013.2 mb 0.00 in0.0 mm 0.00 in0.0 mm 0.00 in0.0 mm
03:05 AM 37.2°F2.9°C 36.7°F2.6°C 98% 7.4 mph N11.9 kmh N 7.4 mph11.9 kmh 29.92 in1013.2 mb 0.00 in0.0 mm 0.00 in0.0 mm 0.00 in0.0 mm
03:10 AM 37.2°F2.9°C 36.7°F2.6°C 98% 1.9 mph NNE3.1 kmh NNE 7.4 mph11.9 kmh 29.92 in1013.2 mb 0.00 in0.0 mm 0.00 in0.0 mm 0.00 in0.0 mm
03:15 AM 37.2°F2.9°C 36.7°F2.6°C 98% 1.9 mph NE3.1 kmh NE 7.4 mph11.9 kmh 29.92 in1013.2 mb 0.00 in0.0 mm 0.00 in0.0 mm 0.00 in0.0 mm
03:20 AM 37.2°F2.9°C 36.7°F2.6°C 98% Calm Calm 4.6 mph7.4 kmh 29.92 in1013.2 mb 0.00 in0.0 mm 0.00 in0.0 mm 0.00 in0.0 mm
03:25 AM 37.2°F2.9°C 36.7°F2.6°C 98% 3.8 mph NE6.1 kmh NE 4.6 mph7.4 kmh 29.92 in1013.2 mb 0.00 in0.0 mm 0.00 in0.0 mm 0.00 in0.0 mm
03:30 AM 37.2°F2.9°C 36.7°F2.6°C 98% 1.1 mph NE1.8 kmh NE 7.6 mph12.2 kmh 29.92 in1013.2 mb 0.00 in0.0 mm 0.00 in0.0 mm 0.00 in0.0 mm
03:35 AM 37.0°F2.8°C 36.5°F2.5°C 98% Calm Calm 7.6 mph12.2 kmh 29.92 in1013.2 mb 0.00 in0.0 mm 0.00 in0.0 mm 0.00 in0.0 mm
03:40 AM 37.0°F2.8°C 36.5°F2.5°C 98% 1.6 mph NE2.6 kmh NE 4.6 mph7.4 kmh 29.92 in1013.2 mb 0.00 in0.0 mm 0.00 in0.0 mm 0.00 in0.0 mm
03:45 AM 37.2°F2.9°C 36.7°F2.6°C 98% Calm Calm 5.2 mph8.4 kmh 29.92 in1013.2 mb 0.00 in0.0 mm 0.00 in0.0 mm 0.00 in0.0 mm
03:50 AM 37.0°F2.8°C 36.5°F2.5°C 98% 1.1 mph NNE1.8 kmh NNE 5.2 mph8.4 kmh 29.92 in1013.2 mb 0.00 in0.0 mm 0.00 in0.0 mm 0.00 in0.0 mm
03:55 AM 37.0°F2.8°C 36.5°F2.5°C 98% 1.6 mph NNE2.6 kmh NNE 5.7 mph9.2 kmh 29.92 in1013.2 mb 0.00 in0.0 mm 0.00 in0.0 mm 0.00 in0.0 mm
04:00 AM 37.0°F2.8°C 36.5°F2.5°C 98% 1.1 mph NE1.8 kmh NE 5.7 mph9.2 kmh 29.89 in1012.2 mb 0.00 in0.0 mm 0.00 in0.0 mm 0.00 in0.0 mm
04:05 AM 37.0°F2.8°C 36.5°F2.5°C 98% 3.3 mph NE5.3 kmh NE 4.9 mph7.9 kmh 29.89 in1012.2 mb 0.00 in0.0 mm 0.00 in0.0 mm 0.00 in0.0 mm
04:10 AM 37.0°F2.8°C 36.5°F2.5°C 98% 3.0 mph NE4.8 kmh NE 4.9 mph7.9 kmh 29.89 in1012.2 mb 0.00 in0.0 mm 0.00 in0.0 mm 0.00 in0.0 mm
04:15 AM 37.2°F2.9°C 36.7°F2.6°C 98% 3.0 mph NNE4.8 kmh NNE 6.0 mph9.7 kmh 29.89 in1012.2 mb 0.00 in0.0 mm 0.00 in0.0 mm 0.00 in0.0 mm
04:20 AM 37.2°F2.9°C 36.7°F2.6°C 98% 3.8 mph N6.1 kmh N 6.0 mph9.7 kmh 29.89 in1012.2 mb 0.00 in0.0 mm 0.00 in0.0 mm 0.00 in0.0 mm
04:25 AM 37.4°F3.0°C 36.9°F2.7°C 98% 4.1 mph N6.6 kmh N 5.2 mph8.4 kmh 29.89 in1012.2 mb 0.00 in0.0 mm 0.00 in0.0 mm 0.00 in0.0 mm
04:30 AM 37.2°F2.9°C 36.7°F2.6°C 98% 3.5 mph NNE5.6 kmh NNE 6.5 mph10.5 kmh 29.89 in1012.2 mb 0.00 in0.0 mm 0.00 in0.0 mm 0.00 in0.0 mm
04:35 AM 37.4°F3.0°C 36.9°F2.7°C 98% 1.4 mph NE2.3 kmh NE 7.4 mph11.9 kmh 29.89 in1012.2 mb 0.00 in0.0 mm 0.00 in0.0 mm 0.00 in0.0 mm
04:40 AM 37.4°F3.0°C 36.9°F2.7°C 98% 7.4 mph NE11.9 kmh NE 7.9 mph12.7 kmh 29.89 in1012.2 mb 0.00 in0.0 mm 0.00 in0.0 mm 0.00 in0.0 mm
04:45 AM 37.2°F2.9°C 36.7°F2.6°C 98% 6.8 mph NNE10.9 kmh NNE 7.9 mph12.7 kmh 29.89 in1012.2 mb 0.00 in0.0 mm 0.00 in0.0 mm 0.00 in0.0 mm
04:50 AM 37.2°F2.9°C 36.7°F2.6°C 98% 1.4 mph N2.3 kmh N 7.6 mph12.2 kmh 29.89 in1012.2 mb 0.00 in0.0 mm 0.00 in0.0 mm 0.00 in0.0 mm
04:55 AM 37.2°F2.9°C 36.7°F2.6°C 98% 2.7 mph N4.3 kmh N 6.0 mph9.7 kmh 29.86 in1011.2 mb 0.00 in0.0 mm 0.00 in0.0 mm 0.00 in0.0 mm
05:00 AM 37.0°F2.8°C 36.5°F2.5°C 98% 3.0 mph NNE4.8 kmh NNE 5.7 mph9.2 kmh 29.86 in1011.2 mb 0.00 in0.0 mm 0.00 in0.0 mm 0.00 in0.0 mm
05:05 AM 37.0°F2.8°C 36.5°F2.5°C 98% 2.5 mph NNE4.0 kmh NNE 6.0 mph9.7 kmh 29.86 in1011.2 mb 0.00 in0.0 mm 0.00 in0.0 mm 0.00 in0.0 mm
05:10 AM 37.2°F2.9°C 36.7°F2.6°C 98% 3.5 mph NNE5.6 kmh NNE 7.1 mph11.4 kmh 29.86 in1011.2 mb 0.00 in0.0 mm 0.00 in0.0 mm 0.00 in0.0 mm
05:15 AM 37.0°F2.8°C 36.5°F2.5°C 98% 2.5 mph N4.0 kmh N 10.4 mph16.7 kmh 29.86 in1011.2 mb 0.00 in0.0 mm 0.00 in0.0 mm 0.00 in0.0 mm
05:20 AM 37.0°F2.8°C 36.5°F2.5°C 98% 4.9 mph N7.9 kmh N 10.4 mph16.7 kmh 29.86 in1011.2 mb 0.00 in0.0 mm 0.00 in0.0 mm 0.00 in0.0 mm
05:25 AM 37.0°F2.8°C 36.5°F2.5°C 98% 2.7 mph NNE4.3 kmh NNE 6.8 mph10.9 kmh 29.86 in1011.2 mb 0.00 in0.0 mm 0.00 in0.0 mm 0.00 in0.0 mm
05:30 AM 37.0°F2.8°C 36.5°F2.5°C 98% 4.4 mph N7.1 kmh N 6.8 mph10.9 kmh 29.86 in1011.2 mb 0.00 in0.0 mm 0.00 in0.0 mm 0.00 in0.0 mm
05:35 AM 37.4°F3.0°C 36.9°F2.7°C 98% 3.8 mph NNE6.1 kmh NNE 5.5 mph8.9 kmh 29.86 in1011.2 mb 0.00 in0.0 mm 0.00 in0.0 mm 0.00 in0.0 mm
05:40 AM 37.4°F3.0°C 36.9°F2.7°C 98% 3.0 mph N4.8 kmh N 6.5 mph10.5 kmh 29.86 in1011.2 mb 0.00 in0.0 mm 0.00 in0.0 mm 0.00 in0.0 mm
05:45 AM 37.6°F3.1°C 37.1°F2.8°C 98% 6.0 mph NNE9.7 kmh NNE 7.1 mph11.4 kmh 29.86 in1011.2 mb 0.00 in0.0 mm 0.00 in0.0 mm 0.00 in0.0 mm
05:50 AM 37.6°F3.1°C 37.1°F2.8°C 98% 4.4 mph NE7.1 kmh NE 8.5 mph13.7 kmh 29.86 in1011.2 mb 0.00 in0.0 mm 0.00 in0.0 mm 0.00 in0.0 mm
05:55 AM 37.6°F3.1°C 37.1°F2.8°C 98% 6.0 mph NNE9.7 kmh NNE 8.5 mph13.7 kmh 29.86 in1011.2 mb 0.00 in0.0 mm 0.00 in0.0 mm 0.00 in0.0 mm
06:00 AM 37.6°F3.1°C 37.1°F2.8°C 98% 3.3 mph NNE5.3 kmh NNE 6.0 mph9.7 kmh 29.86 in1011.2 mb 0.00 in0.0 mm 0.00 in0.0 mm 0.00 in0.0 mm
06:05 AM 37.6°F3.1°C 37.1°F2.8°C 98% 4.4 mph NE7.1 kmh NE 5.2 mph8.4 kmh 29.86 in1011.2 mb 0.00 in0.0 mm 0.00 in0.0 mm 0.00 in0.0 mm
06:10 AM 37.6°F3.1°C 37.1°F2.8°C 98% 1.1 mph NNE1.8 kmh NNE 6.5 mph10.5 kmh 29.83 in1010.2 mb 0.00 in0.0 mm 0.00 in0.0 mm 0.00 in0.0 mm
06:15 AM 37.4°F3.0°C 36.9°F2.7°C 98% Calm Calm 6.5 mph10.5 kmh 29.83 in1010.2 mb 0.00 in0.0 mm 0.00 in0.0 mm 0.00 in0.0 mm
06:20 AM 37.2°F2.9°C 36.7°F2.6°C 98% 3.3 mph NNE5.3 kmh NNE 6.0 mph9.7 kmh 29.83 in1010.2 mb 0.00 in0.0 mm 0.00 in0.0 mm 0.00 in0.0 mm
06:25 AM 37.2°F2.9°C 36.7°F2.6°C 98% 5.5 mph NNE8.9 kmh NNE 6.0 mph9.7 kmh 29.83 in1010.2 mb 0.00 in0.0 mm 0.00 in0.0 mm 0.00 in0.0 mm
06:30 AM 37.0°F2.8°C 36.5°F2.5°C 98% 4.1 mph NNE6.6 kmh NNE 5.5 mph8.9 kmh 29.83 in1010.2 mb 0.00 in0.0 mm 0.00 in0.0 mm 0.00 in0.0 mm
06:35 AM 37.0°F2.8°C 36.5°F2.5°C 98% 5.5 mph NNE8.9 kmh NNE 5.5 mph8.9 kmh 29.83 in1010.2 mb 0.00 in0.0 mm 0.00 in0.0 mm 0.00 in0.0 mm
06:40 AM 37.0°F2.8°C 36.5°F2.5°C 98% 4.4 mph NE7.1 kmh NE 5.5 mph8.9 kmh 29.83 in1010.2 mb 0.00 in0.0 mm 0.00 in0.0 mm 0.00 in0.0 mm
06:45 AM 36.9°F2.7°C 36.3°F2.4°C 98% 2.7 mph NE4.3 kmh NE 5.5 mph8.9 kmh 29.83 in1010.2 mb 0.00 in0.0 mm 0.00 in0.0 mm 0.00 in0.0 mm
06:50 AM 36.9°F2.7°C 36.3°F2.4°C 98% 3.3 mph N5.3 kmh N 4.4 mph7.1 kmh 29.83 in1010.2 mb 0.00 in0.0 mm 0.00 in0.0 mm 0.00 in0.0 mm
06:55 AM 36.9°F2.7°C 36.3°F2.4°C 98% 3.5 mph NNE5.6 kmh NNE 4.4 mph7.1 kmh 29.83 in1010.2 mb 0.00 in0.0 mm 0.00 in0.0 mm 0.00 in0.0 mm
07:00 AM 36.9°F2.7°C 36.3°F2.4°C 98% 3.5 mph N5.6 kmh N 8.7 mph14.0 kmh 29.83 in1010.2 mb 0.00 in0.0 mm 0.00 in0.0 mm 0.00 in0.0 mm
07:05 AM 36.9°F2.7°C 36.3°F2.4°C 98% Calm Calm 8.7 mph14.0 kmh 29.83 in1010.2 mb 0.00 in0.0 mm 0.00 in0.0 mm 0.00 in0.0 mm
07:10 AM 36.9°F2.7°C 36.3°F2.4°C 98% 1.4 mph NNE2.3 kmh NNE 5.7 mph9.2 kmh 29.83 in1010.2 mb 0.00 in0.0 mm 0.00 in0.0 mm 0.00 in0.0 mm
07:15 AM 36.7°F2.6°C 36.2°F2.3°C 98% 4.4 mph N7.1 kmh N 4.9 mph7.9 kmh 29.83 in1010.2 mb 0.00 in0.0 mm 0.00 in0.0 mm 0.00 in0.0 mm
07:20 AM 36.7°F2.6°C 36.2°F2.3°C 98% 4.9 mph N7.9 kmh N 5.7 mph9.2 kmh 29.83 in1010.2 mb 0.00 in0.0 mm 0.00 in0.0 mm 0.00 in0.0 mm
07:25 AM 36.9°F2.7°C 36.3°F2.4°C 98% 5.7 mph NNE9.2 kmh NNE 6.0 mph9.7 kmh 29.83 in1010.2 mb 0.00 in0.0 mm 0.00 in0.0 mm 0.00 in0.0 mm
07:30 AM 36.9°F2.7°C 36.3°F2.4°C 98% 3.5 mph NNE5.6 kmh NNE 7.1 mph11.4 kmh 29.83 in1010.2 mb 0.00 in0.0 mm 0.00 in0.0 mm 0.00 in0.0 mm
07:35 AM 37.0°F2.8°C 36.5°F2.5°C 98% 5.2 mph N8.4 kmh N 7.1 mph11.4 kmh 29.83 in1010.2 mb 0.00 in0.0 mm 0.00 in0.0 mm 0.00 in0.0 mm
07:40 AM 37.2°F2.9°C 36.7°F2.6°C 98% 1.9 mph NNE3.1 kmh NNE 6.5 mph10.5 kmh 29.83 in1010.2 mb 0.00 in0.0 mm 0.00 in0.0 mm 0.00 in0.0 mm
07:45 AM 37.6°F3.1°C 37.1°F2.8°C 98% 2.5 mph NE4.0 kmh NE 5.5 mph8.9 kmh 29.83 in1010.2 mb 0.00 in0.0 mm 0.00 in0.0 mm 0.00 in0.0 mm
07:50 AM 37.9°F3.3°C 37.4°F3.0°C 98% 1.1 mph NE1.8 kmh NE 6.0 mph9.7 kmh 29.83 in1010.2 mb 0.00 in0.0 mm 0.00 in0.0 mm 0.00 in0.0 mm
07:55 AM 38.5°F3.6°C 38.0°F3.3°C 98% 3.8 mph NE6.1 kmh NE 6.0 mph9.7 kmh 29.83 in1010.2 mb 0.00 in0.0 mm 0.00 in0.0 mm 0.00 in0.0 mm
08:00 AM 38.8°F3.8°C 38.3°F3.5°C 98% 7.6 mph NE12.2 kmh NE 7.6 mph12.2 kmh 29.83 in1010.2 mb 0.00 in0.0 mm 0.00 in0.0 mm 0.00 in0.0 mm
08:05 AM 39.2°F4.0°C 38.7°F3.7°C 98% 3.8 mph NE6.1 kmh NE 7.6 mph12.2 kmh 29.83 in1010.2 mb 0.00 in0.0 mm 0.00 in0.0 mm 0.00 in0.0 mm
08:10 AM 39.7°F4.3°C 39.2°F4.0°C 98% 2.7 mph NE4.3 kmh NE 7.6 mph12.2 kmh 29.83 in1010.2 mb 0.00 in0.0 mm 0.00 in0.0 mm 0.00 in0.0 mm
08:15 AM 40.3°F4.6°C 39.8°F4.3°C 98% 2.7 mph NE4.3 kmh NE 4.6 mph7.4 kmh 29.83 in1010.2 mb 0.00 in0.0 mm 0.00 in0.0 mm 0.00 in0.0 mm
08:20 AM 40.8°F4.9°C 40.3°F4.6°C 98% 3.0 mph NNE4.8 kmh NNE 5.7 mph9.2 kmh 29.83 in1010.2 mb 0.00 in0.0 mm 0.00 in0.0 mm 0.00 in0.0 mm
08:25 AM 41.4°F5.2°C 40.8°F4.9°C 98% 1.9 mph NE3.1 kmh NE 6.0 mph9.7 kmh 29.83 in1010.2 mb 0.00 in0.0 mm 0.00 in0.0 mm 0.00 in0.0 mm
08:30 AM 42.1°F5.6°C 41.6°F5.3°C 98% 2.5 mph NE4.0 kmh NE 6.8 mph10.9 kmh 29.83 in1010.2 mb 0.00 in0.0 mm 0.00 in0.0 mm 0.00 in0.0 mm
08:35 AM 42.3°F5.7°C 41.7°F5.4°C 98% 4.9 mph ENE7.9 kmh ENE 6.8 mph10.9 kmh 29.83 in1010.2 mb 0.00 in0.0 mm 0.00 in0.0 mm 0.00 in0.0 mm
08:40 AM 42.3°F5.7°C 41.7°F5.4°C 98% 1.6 mph NE2.6 kmh NE 6.0 mph9.7 kmh 29.80 in1009.1 mb 0.00 in0.0 mm 0.00 in0.0 mm 0.00 in0.0 mm
08:45 AM 42.4°F5.8°C 41.9°F5.5°C 98% 1.6 mph N2.6 kmh N 6.0 mph9.7 kmh 29.80 in1009.1 mb 0.00 in0.0 mm 0.00 in0.0 mm 0.00 in0.0 mm
08:50 AM 42.6°F5.9°C 42.1°F5.6°C 98% 3.0 mph N4.8 kmh N 7.1 mph11.4 kmh 29.80 in1009.1 mb 0.00 in0.0 mm 0.00 in0.0 mm 0.00 in0.0 mm
08:55 AM 42.8°F6.0°C 42.3°F5.7°C 98% 3.8 mph NNE6.1 kmh NNE 9.3 mph15.0 kmh 29.80 in1009.1 mb 0.00 in0.0 mm 0.00 in0.0 mm 0.00 in0.0 mm
09:00 AM 42.8°F6.0°C 42.3°F5.7°C 98% 3.0 mph NE4.8 kmh NE 9.3 mph15.0 kmh 29.80 in1009.1 mb 0.00 in0.0 mm 0.00 in0.0 mm 0.00 in0.0 mm
09:05 AM 42.8°F6.0°C 42.0°F5.6°C 97% 4.4 mph NNE7.1 kmh NNE 6.0 mph9.7 kmh 29.80 in1009.1 mb 0.00 in0.0 mm 0.00 in0.0 mm 0.00 in0.0 mm
09:10 AM 43.2°F6.2°C 42.4°F5.8°C 97% 4.4 mph NNE7.1 kmh NNE 6.0 mph9.7 kmh 29.80 in1009.1 mb 0.00 in0.0 mm 0.00 in0.0 mm 0.00 in0.0 mm
09:15 AM 43.5°F6.4°C 43.0°F6.1°C 98% 3.8 mph NE6.1 kmh NE 7.4 mph11.9 kmh 29.80 in1009.1 mb 0.00 in0.0 mm 0.00 in0.0 mm 0.00 in0.0 mm
09:20 AM 43.9°F6.6°C 43.1°F6.2°C 97% 1.4 mph NE2.3 kmh NE 7.4 mph11.9 kmh 29.80 in1009.1 mb 0.00 in0.0 mm 0.00 in0.0 mm 0.00 in0.0 mm
09:25 AM 44.2°F6.8°C 43.4°F6.3°C 97% 3.8 mph NNE6.1 kmh NNE 7.6 mph12.2 kmh 29.80 in1009.1 mb 0.00 in0.0 mm 0.00 in0.0 mm 0.00 in0.0 mm
09:30 AM 44.8°F7.1°C 44.0°F6.7°C 97% 6.8 mph N10.9 kmh N 9.6 mph15.4 kmh 29.80 in1009.1 mb 0.00 in0.0 mm 0.00 in0.0 mm 0.00 in0.0 mm
09:35 AM 45.1°F7.3°C 44.1°F6.7°C 96% 4.6 mph N7.4 kmh N 9.6 mph15.4 kmh 29.80 in1009.1 mb 0.00 in0.0 mm 0.00 in0.0 mm 0.00 in0.0 mm
09:40 AM 45.7°F7.6°C 44.9°F7.2°C 97% 3.3 mph NNE5.3 kmh NNE 7.1 mph11.4 kmh 29.80 in1009.1 mb 0.00 in0.0 mm 0.00 in0.0 mm 0.00 in0.0 mm
09:45 AM 46.0°F7.8°C 45.2°F7.3°C 97% 3.3 mph N5.3 kmh N 4.6 mph7.4 kmh 29.80 in1009.1 mb 0.00 in0.0 mm 0.00 in0.0 mm 0.00 in0.0 mm
09:50 AM 45.9°F7.7°C 44.8°F7.1°C 96% 1.6 mph N2.6 kmh N 5.2 mph8.4 kmh 29.80 in1009.1 mb 0.00 in0.0 mm 0.00 in0.0 mm 0.00 in0.0 mm
09:55 AM 46.6°F8.1°C 45.2°F7.3°C 95% 3.3 mph NNE5.3 kmh NNE 5.2 mph8.4 kmh 29.80 in1009.1 mb 0.00 in0.0 mm 0.00 in0.0 mm 0.00 in0.0 mm
10:00 AM 46.8°F8.2°C 45.7°F7.6°C 96% 2.5 mph NE4.0 kmh NE 8.7 mph14.0 kmh 29.80 in1009.1 mb 0.00 in0.0 mm 0.00 in0.0 mm 0.00 in0.0 mm
10:05 AM 46.9°F8.3°C 45.9°F7.7°C 96% 5.2 mph NE8.4 kmh NE 8.7 mph14.0 kmh 29.80 in1009.1 mb 0.00 in0.0 mm 0.00 in0.0 mm 0.00 in0.0 mm
10:10 AM 46.8°F8.2°C 45.1°F7.3°C 94% 1.4 mph N2.3 kmh N 10.6 mph17.1 kmh 29.77 in1008.1 mb 0.00 in0.0 mm 0.00 in0.0 mm 0.00 in0.0 mm
10:15 AM 46.8°F8.2°C 45.4°F7.4°C 95% 7.4 mph NE11.9 kmh NE 10.6 mph17.1 kmh 29.77 in1008.1 mb 0.00 in0.0 mm 0.00 in0.0 mm 0.00 in0.0 mm
10:20 AM 47.1°F8.4°C 45.8°F7.7°C 95% 4.1 mph ENE6.6 kmh ENE 7.4 mph11.9 kmh 29.77 in1008.1 mb 0.00 in0.0 mm 0.00 in0.0 mm 0.00 in0.0 mm
10:25 AM 47.3°F8.5°C 45.7°F7.6°C 94% 3.5 mph NE5.6 kmh NE 7.4 mph11.9 kmh 29.77 in1008.1 mb 0.00 in0.0 mm 0.00 in0.0 mm 0.00 in0.0 mm
10:30 AM 47.3°F8.5°C 45.1°F7.3°C 92% 3.0 mph NE4.8 kmh NE 9.0 mph14.5 kmh 29.77 in1008.1 mb 0.00 in0.0 mm 0.00 in0.0 mm 0.00 in0.0 mm
10:35 AM 47.3°F8.5°C 45.4°F7.4°C 93% 3.5 mph NE5.6 kmh NE 9.0 mph14.5 kmh 29.77 in1008.1 mb 0.00 in0.0 mm 0.00 in0.0 mm 0.00 in0.0 mm
10:40 AM 47.5°F8.6°C 45.3°F7.4°C 92% 1.6 mph N2.6 kmh N 7.1 mph11.4 kmh 29.77 in1008.1 mb 0.00 in0.0 mm 0.00 in0.0 mm 0.00 in0.0 mm
10:45 AM 47.8°F8.8°C 45.6°F7.6°C 92% 4.6 mph N7.4 kmh N 7.1 mph11.4 kmh 29.77 in1008.1 mb 0.00 in0.0 mm 0.00 in0.0 mm 0.00 in0.0 mm
10:50 AM 48.0°F8.9°C 45.8°F7.7°C 92% 6.5 mph NNE10.5 kmh NNE 6.8 mph10.9 kmh 29.77 in1008.1 mb 0.00 in0.0 mm 0.00 in0.0 mm 0.00 in0.0 mm
10:55 AM 48.2°F9.0°C 46.0°F7.8°C 92% Calm Calm 6.5 mph10.5 kmh 29.77 in1008.1 mb 0.00 in0.0 mm 0.00 in0.0 mm 0.00 in0.0 mm
11:00 AM 48.2°F9.0°C 45.7°F7.6°C 91% 3.3 mph NE5.3 kmh NE 10.4 mph16.7 kmh 29.77 in1008.1 mb 0.00 in0.0 mm 0.00 in0.0 mm 0.00 in0.0 mm
11:05 AM 48.4°F9.1°C 45.9°F7.7°C 91% 7.1 mph NE11.4 kmh NE 10.4 mph16.7 kmh 29.77 in1008.1 mb 0.00 in0.0 mm 0.00 in0.0 mm 0.00 in0.0 mm
11:10 AM 48.6°F9.2°C 45.8°F7.7°C 90% 3.0 mph NNE4.8 kmh NNE 7.1 mph11.4 kmh 29.77 in1008.1 mb 0.00 in0.0 mm 0.00 in0.0 mm 0.00 in0.0 mm
11:15 AM 48.7°F9.3°C 45.3°F7.4°C 88% 4.4 mph NE7.1 kmh NE 7.1 mph11.4 kmh 29.77 in1008.1 mb 0.00 in0.0 mm 0.00 in0.0 mm 0.00 in0.0 mm
11:20 AM 48.7°F9.3°C 45.6°F7.6°C 89% 5.2 mph NE8.4 kmh NE 7.1 mph11.4 kmh 29.77 in1008.1 mb 0.00 in0.0 mm 0.00 in0.0 mm 0.00 in0.0 mm
11:25 AM 48.7°F9.3°C 44.7°F7.1°C 86% 3.3 mph NE5.3 kmh NE 7.9 mph12.7 kmh 29.77 in1008.1 mb 0.00 in0.0 mm 0.00 in0.0 mm 0.00 in0.0 mm
11:30 AM 48.7°F9.3°C 45.0°F7.2°C 87% 2.5 mph NE4.0 kmh NE 10.4 mph16.7 kmh 29.74 in1007.1 mb 0.00 in0.0 mm 0.00 in0.0 mm 0.00 in0.0 mm
11:35 AM 48.4°F9.1°C 44.7°F7.1°C 87% 4.4 mph E7.1 kmh E 10.4 mph16.7 kmh 29.74 in1007.1 mb 0.00 in0.0 mm 0.00 in0.0 mm 0.00 in0.0 mm
11:40 AM 48.2°F9.0°C 44.5°F6.9°C 87% 2.5 mph ENE4.0 kmh ENE 10.4 mph16.7 kmh 29.74 in1007.1 mb 0.00 in0.0 mm 0.00 in0.0 mm 0.00 in0.0 mm
11:45 AM 48.2°F9.0°C 44.2°F6.8°C 86% 3.5 mph NE5.6 kmh NE 10.4 mph16.7 kmh 29.74 in1007.1 mb 0.00 in0.0 mm 0.00 in0.0 mm 0.00 in0.0 mm
11:50 AM 47.7°F8.7°C 43.7°F6.5°C 86% 7.9 mph ENE12.7 kmh ENE 8.2 mph13.2 kmh 29.74 in1007.1 mb 0.00 in0.0 mm 0.00 in0.0 mm 0.00 in0.0 mm
11:55 AM 47.5°F8.6°C 43.2°F6.2°C 85% 5.2 mph NE8.4 kmh NE 8.2 mph13.2 kmh 29.74 in1007.1 mb 0.00 in0.0 mm 0.00 in0.0 mm 0.00 in0.0 mm
12:00 PM 47.5°F8.6°C 43.5°F6.4°C 86% 3.8 mph NE6.1 kmh NE 7.1 mph11.4 kmh 29.71 in1006.1 mb 0.00 in0.0 mm 0.00 in0.0 mm 0.00 in0.0 mm
12:05 PM 47.1°F8.4°C 42.5°F5.8°C 84% Calm Calm 5.2 mph8.4 kmh 29.71 in1006.1 mb 0.00 in0.0 mm 0.00 in0.0 mm 0.00 in0.0 mm
12:10 PM 47.5°F8.6°C 43.5°F6.4°C 86% 1.9 mph NE3.1 kmh NE 6.0 mph9.7 kmh 29.71 in1006.1 mb 0.00 in0.0 mm 0.00 in0.0 mm 0.00 in0.0 mm
12:15 PM 47.5°F8.6°C 42.6°F5.9°C 83% 4.6 mph N7.4 kmh N 7.9 mph12.7 kmh 29.71 in1006.1 mb 0.00 in0.0 mm 0.00 in0.0 mm 0.00 in0.0 mm
12:20 PM 47.7°F8.7°C 43.1°F6.2°C 84% 1.6 mph N2.6 kmh N 7.9 mph12.7 kmh 29.71 in1006.1 mb 0.00 in0.0 mm 0.00 in0.0 mm 0.00 in0.0 mm
12:25 PM 48.0°F8.9°C 42.8°F6.0°C 82% 8.5 mph ENE13.7 kmh ENE 8.5 mph13.7 kmh 29.71 in1006.1 mb 0.00 in0.0 mm 0.00 in0.0 mm 0.00 in0.0 mm
12:30 PM 48.0°F8.9°C 42.5°F5.8°C 81% 1.1 mph E1.8 kmh E 8.5 mph13.7 kmh 29.71 in1006.1 mb 0.00 in0.0 mm 0.00 in0.0 mm 0.00 in0.0 mm
12:35 PM 48.2°F9.0°C 42.3°F5.7°C 80% 1.6 mph NNE2.6 kmh NNE 6.0 mph9.7 kmh 29.71 in1006.1 mb 0.00 in0.0 mm 0.00 in0.0 mm 0.00 in0.0 mm
12:40 PM 48.6°F9.2°C 42.3°F5.7°C 79% 5.2 mph NE8.4 kmh NE 7.6 mph12.2 kmh 29.71 in1006.1 mb 0.00 in0.0 mm 0.00 in0.0 mm 0.00 in0.0 mm
12:45 PM 48.4°F9.1°C 41.8°F5.4°C 78% 7.1 mph NE11.4 kmh NE 9.0 mph14.5 kmh 29.68 in1005.1 mb 0.00 in0.0 mm 0.00 in0.0 mm 0.00 in0.0 mm
12:50 PM 48.2°F9.0°C 41.3°F5.2°C 77% 11.5 mph NNE18.5 kmh NNE 11.5 mph18.5 kmh 29.68 in1005.1 mb 0.00 in0.0 mm 0.00 in0.0 mm 0.00 in0.0 mm
12:55 PM 48.2°F9.0°C 41.7°F5.4°C 78% 4.6 mph NE7.4 kmh NE 11.5 mph18.5 kmh 29.68 in1005.1 mb 0.00 in0.0 mm 0.00 in0.0 mm 0.00 in0.0 mm
01:00 PM 48.0°F8.9°C 41.5°F5.3°C 78% 4.4 mph N7.1 kmh N 12.0 mph19.3 kmh 29.68 in1005.1 mb 0.00 in0.0 mm 0.00 in0.0 mm 0.00 in0.0 mm
01:05 PM 48.0°F8.9°C 41.5°F5.3°C 78% 1.1 mph N1.8 kmh N 12.0 mph19.3 kmh 29.68 in1005.1 mb 0.00 in0.0 mm 0.00 in0.0 mm 0.00 in0.0 mm
01:10 PM 47.8°F8.8°C 41.6°F5.3°C 79% 2.7 mph E4.3 kmh E 7.6 mph12.2 kmh 29.68 in1005.1 mb 0.00 in0.0 mm 0.00 in0.0 mm 0.00 in0.0 mm
01:15 PM 47.8°F8.8°C 41.0°F5.0°C 77% 3.5 mph E5.6 kmh E 6.8 mph10.9 kmh 29.68 in1005.1 mb 0.00 in0.0 mm 0.00 in0.0 mm 0.00 in0.0 mm
01:20 PM 47.8°F8.8°C 40.6°F4.8°C 76% 7.1 mph NE11.4 kmh NE 7.1 mph11.4 kmh 29.68 in1005.1 mb 0.00 in0.0 mm 0.00 in0.0 mm 0.00 in0.0 mm
01:25 PM 47.7°F8.7°C 40.5°F4.7°C 76% 1.1 mph NE1.8 kmh NE 7.1 mph11.4 kmh 29.68 in1005.1 mb 0.00 in0.0 mm 0.00 in0.0 mm 0.00 in0.0 mm
04:30 PM 45.9°F7.7°C 38.0°F3.3°C 74% 3.5 mph NNE5.6 kmh NNE 6.5 mph10.5 kmh 29.62 in1003.0 mb 0.00 in0.0 mm 0.00 in0.0 mm 0.00 in0.0 mm
04:35 PM 45.7°F7.6°C 38.5°F3.6°C 76% 5.2 mph NNE8.4 kmh NNE 6.8 mph10.9 kmh 29.62 in1003.0 mb 0.00 in0.0 mm 0.00 in0.0 mm 0.00 in0.0 mm
04:40 PM 45.5°F7.5°C 38.4°F3.6°C 76% 1.9 mph N3.1 kmh N 6.8 mph10.9 kmh 29.62 in1003.0 mb 0.00 in0.0 mm 0.00 in0.0 mm 0.00 in0.0 mm
04:45 PM 45.3°F7.4°C 37.9°F3.3°C 75% 4.9 mph N7.9 kmh N 7.1 mph11.4 kmh 29.62 in1003.0 mb 0.00 in0.0 mm 0.00 in0.0 mm 0.00 in0.0 mm
04:50 PM 45.1°F7.3°C 38.0°F3.3°C 76% 1.4 mph NNE2.3 kmh NNE 7.1 mph11.4 kmh 29.62 in1003.0 mb 0.00 in0.0 mm 0.00 in0.0 mm 0.00 in0.0 mm
04:55 PM 45.1°F7.3°C 38.0°F3.3°C 76% 9.3 mph N15.0 kmh N 9.3 mph15.0 kmh 29.59 in1002.0 mb 0.00 in0.0 mm 0.00 in0.0 mm 0.00 in0.0 mm
05:00 PM 45.0°F7.2°C 37.5°F3.1°C 75% 5.7 mph N9.2 kmh N 9.3 mph15.0 kmh 29.59 in1002.0 mb 0.00 in0.0 mm 0.00 in0.0 mm 0.00 in0.0 mm
05:05 PM 44.8°F7.1°C 37.7°F3.2°C 76% 3.5 mph NE5.6 kmh NE 7.4 mph11.9 kmh 29.59 in1002.0 mb 0.00 in0.0 mm 0.00 in0.0 mm 0.00 in0.0 mm
05:10 PM 44.6°F7.0°C 37.5°F3.1°C 76% 3.0 mph NE4.8 kmh NE 6.5 mph10.5 kmh 29.59 in1002.0 mb 0.00 in0.0 mm 0.00 in0.0 mm 0.00 in0.0 mm
05:15 PM 44.4°F6.9°C 37.7°F3.2°C 77% 3.0 mph NNE4.8 kmh NNE 6.5 mph10.5 kmh 29.59 in1002.0 mb 0.00 in0.0 mm 0.00 in0.0 mm 0.00 in0.0 mm
05:20 PM 44.2°F6.8°C 37.5°F3.1°C 77% 3.3 mph NE5.3 kmh NE 5.2 mph8.4 kmh 29.59 in1002.0 mb 0.00 in0.0 mm 0.00 in0.0 mm 0.00 in0.0 mm
05:25 PM 44.1°F6.7°C 37.3°F2.9°C 77% 4.4 mph NNE7.1 kmh NNE 6.5 mph10.5 kmh 29.59 in1002.0 mb 0.00 in0.0 mm 0.00 in0.0 mm 0.00 in0.0 mm
05:30 PM 43.7°F6.5°C 37.0°F2.8°C 77% 8.7 mph NNE14.0 kmh NNE 8.7 mph14.0 kmh 29.59 in1002.0 mb 0.00 in0.0 mm 0.00 in0.0 mm 0.00 in0.0 mm
05:35 PM 43.7°F6.5°C 37.0°F2.8°C 77% 5.7 mph NE9.2 kmh NE 8.7 mph14.0 kmh 29.59 in1002.0 mb 0.00 in0.0 mm 0.00 in0.0 mm 0.00 in0.0 mm
05:40 PM 43.7°F6.5°C 37.0°F2.8°C 77% 5.2 mph N8.4 kmh N 7.9 mph12.7 kmh 29.59 in1002.0 mb 0.00 in0.0 mm 0.00 in0.0 mm 0.00 in0.0 mm
05:45 PM 43.5°F6.4°C 36.8°F2.7°C 77% 3.0 mph N4.8 kmh N 7.9 mph12.7 kmh 29.59 in1002.0 mb 0.00 in0.0 mm 0.00 in0.0 mm 0.00 in0.0 mm
05:50 PM 43.5°F6.4°C 36.8°F2.7°C 77% 4.1 mph N6.6 kmh N 12.0 mph19.3 kmh 29.59 in1002.0 mb 0.00 in0.0 mm 0.00 in0.0 mm 0.00 in0.0 mm
05:55 PM 43.3°F6.3°C 36.6°F2.6°C 77% 3.3 mph NNE5.3 kmh NNE 12.0 mph19.3 kmh 29.59 in1002.0 mb 0.00 in0.0 mm 0.00 in0.0 mm 0.00 in0.0 mm
06:00 PM 43.2°F6.2°C 36.4°F2.4°C 77% 5.2 mph N8.4 kmh N 9.6 mph15.4 kmh 29.59 in1002.0 mb 0.00 in0.0 mm 0.00 in0.0 mm 0.00 in0.0 mm
06:05 PM 43.0°F6.1°C 36.6°F2.6°C 78% 2.5 mph N4.0 kmh N 7.9 mph12.7 kmh 29.59 in1002.0 mb 0.00 in0.0 mm 0.00 in0.0 mm 0.00 in0.0 mm
06:10 PM 43.0°F6.1°C 36.6°F2.6°C 78% 4.1 mph N6.6 kmh N 5.2 mph8.4 kmh 29.59 in1002.0 mb 0.00 in0.0 mm 0.00 in0.0 mm 0.00 in0.0 mm
06:15 PM 42.8°F6.0°C 36.1°F2.3°C 77% 1.4 mph N2.3 kmh N 7.6 mph12.2 kmh 29.59 in1002.0 mb 0.00 in0.0 mm 0.00 in0.0 mm 0.00 in0.0 mm
06:20 PM 42.8°F6.0°C 36.7°F2.6°C 79% 1.9 mph N3.1 kmh N 7.6 mph12.2 kmh 29.59 in1002.0 mb 0.00 in0.0 mm 0.00 in0.0 mm 0.00 in0.0 mm
06:25 PM 42.6°F5.9°C 36.6°F2.6°C 79% 4.6 mph N7.4 kmh N 7.4 mph11.9 kmh 29.59 in1002.0 mb 0.00 in0.0 mm 0.00 in0.0 mm 0.00 in0.0 mm
06:30 PM 42.4°F5.8°C 36.7°F2.6°C 80% 7.6 mph N12.2 kmh N 7.6 mph12.2 kmh 29.59 in1002.0 mb 0.00 in0.0 mm 0.00 in0.0 mm 0.00 in0.0 mm
06:35 PM 42.4°F5.8°C 36.7°F2.6°C 80% 3.5 mph NNE5.6 kmh NNE 7.6 mph12.2 kmh 29.59 in1002.0 mb 0.00 in0.0 mm 0.00 in0.0 mm 0.00 in0.0 mm
06:40 PM 42.3°F5.7°C 36.5°F2.5°C 80% 7.4 mph NNE11.9 kmh NNE 7.6 mph12.2 kmh 29.56 in1001.0 mb 0.00 in0.0 mm 0.00 in0.0 mm 0.00 in0.0 mm
06:45 PM 42.3°F5.7°C 36.5°F2.5°C 80% 4.4 mph N7.1 kmh N 7.4 mph11.9 kmh 29.56 in1001.0 mb 0.00 in0.0 mm 0.00 in0.0 mm 0.00 in0.0 mm
06:50 PM 42.3°F5.7°C 36.8°F2.7°C 81% 1.1 mph NNE1.8 kmh NNE 7.4 mph11.9 kmh 29.56 in1001.0 mb 0.00 in0.0 mm 0.00 in0.0 mm 0.00 in0.0 mm
06:55 PM 42.1°F5.6°C 36.4°F2.4°C 80% 4.1 mph NE6.6 kmh NE 6.8 mph10.9 kmh 29.56 in1001.0 mb 0.00 in0.0 mm 0.00 in0.0 mm 0.00 in0.0 mm
07:00 PM 41.9°F5.5°C 36.5°F2.5°C 81% 4.4 mph N7.1 kmh N 6.8 mph10.9 kmh 29.56 in1001.0 mb 0.00 in0.0 mm 0.00 in0.0 mm 0.00 in0.0 mm
07:05 PM 41.9°F5.5°C 36.8°F2.7°C 82% 2.7 mph N4.3 kmh N 6.8 mph10.9 kmh 29.56 in1001.0 mb 0.00 in0.0 mm 0.00 in0.0 mm 0.00 in0.0 mm
07:10 PM 41.7°F5.4°C 36.6°F2.6°C 82% 1.6 mph NNE2.6 kmh NNE 6.8 mph10.9 kmh 29.56 in1001.0 mb 0.00 in0.0 mm 0.00 in0.0 mm 0.00 in0.0 mm
07:15 PM 41.7°F5.4°C 36.6°F2.6°C 82% 3.5 mph NNE5.6 kmh NNE 10.6 mph17.1 kmh 29.56 in1001.0 mb 0.00 in0.0 mm 0.00 in0.0 mm 0.00 in0.0 mm
07:20 PM 41.5°F5.3°C 36.5°F2.5°C 82% 6.5 mph NNE10.5 kmh NNE 10.6 mph17.1 kmh 29.56 in1001.0 mb 0.00 in0.0 mm 0.00 in0.0 mm 0.00 in0.0 mm
07:25 PM 41.5°F5.3°C 36.5°F2.5°C 82% 5.2 mph NE8.4 kmh NE 6.5 mph10.5 kmh 29.56 in1001.0 mb 0.00 in0.0 mm 0.00 in0.0 mm 0.00 in0.0 mm
07:30 PM 41.2°F5.1°C 36.1°F2.3°C 82% 7.9 mph N12.7 kmh N 7.9 mph12.7 kmh 29.56 in1001.0 mb 0.00 in0.0 mm 0.00 in0.0 mm 0.00 in0.0 mm
07:35 PM 41.0°F5.0°C 35.9°F2.2°C 82% 3.0 mph N4.8 kmh N 7.9 mph12.7 kmh 29.56 in1001.0 mb 0.00 in0.0 mm 0.00 in0.0 mm 0.00 in0.0 mm
07:40 PM 41.0°F5.0°C 36.2°F2.3°C 83% 4.6 mph N7.4 kmh N 7.9 mph12.7 kmh 29.53 in1000.0 mb 0.00 in0.0 mm 0.00 in0.0 mm 0.00 in0.0 mm
07:45 PM 40.6°F4.8°C 35.9°F2.2°C 83% 1.6 mph N2.6 kmh N 4.6 mph7.4 kmh 29.53 in1000.0 mb 0.00 in0.0 mm 0.00 in0.0 mm 0.00 in0.0 mm
07:50 PM 40.6°F4.8°C 35.9°F2.2°C 83% 5.7 mph N9.2 kmh N 6.5 mph10.5 kmh 29.53 in1000.0 mb 0.00 in0.0 mm 0.00 in0.0 mm 0.00 in0.0 mm
07:55 PM 40.6°F4.8°C 36.2°F2.3°C 84% 3.3 mph N5.3 kmh N 6.5 mph10.5 kmh 29.53 in1000.0 mb 0.00 in0.0 mm 0.00 in0.0 mm 0.00 in0.0 mm
08:00 PM 40.5°F4.7°C 36.0°F2.2°C 84% 9.8 mph NNE15.8 kmh NNE 9.8 mph15.8 kmh 29.53 in1000.0 mb 0.00 in0.0 mm 0.00 in0.0 mm 0.00 in0.0 mm
08:05 PM 40.5°F4.7°C 36.0°F2.2°C 84% 6.0 mph NNE9.7 kmh NNE 9.8 mph15.8 kmh 29.53 in1000.0 mb 0.00 in0.0 mm 0.00 in0.0 mm 0.00 in0.0 mm
08:10 PM 40.5°F4.7°C 36.0°F2.2°C 84% 8.2 mph N13.2 kmh N 9.8 mph15.8 kmh 29.53 in1000.0 mb 0.00 in0.0 mm 0.00 in0.0 mm 0.00 in0.0 mm
08:15 PM 40.3°F4.6°C 35.8°F2.1°C 84% 3.0 mph N4.8 kmh N 8.2 mph13.2 kmh 29.53 in1000.0 mb 0.00 in0.0 mm 0.00 in0.0 mm 0.00 in0.0 mm
08:20 PM 40.3°F4.6°C 35.8°F2.1°C 84% 4.4 mph NNE7.1 kmh NNE 7.9 mph12.7 kmh 29.53 in1000.0 mb 0.00 in0.0 mm 0.00 in0.0 mm 0.00 in0.0 mm
08:25 PM 40.3°F4.6°C 35.8°F2.1°C 84% 2.5 mph NNE4.0 kmh NNE 7.9 mph12.7 kmh 29.53 in1000.0 mb 0.00 in0.0 mm 0.00 in0.0 mm 0.00 in0.0 mm
08:30 PM 40.3°F4.6°C 36.1°F2.3°C 85% 4.6 mph NNE7.4 kmh NNE 6.8 mph10.9 kmh 29.50 in999.0 mb 0.00 in0.0 mm 0.00 in0.0 mm 0.00 in0.0 mm
08:35 PM 40.3°F4.6°C 36.1°F2.3°C 85% 9.0 mph NE14.5 kmh NE 9.0 mph14.5 kmh 29.50 in999.0 mb 0.00 in0.0 mm 0.00 in0.0 mm 0.00 in0.0 mm
08:40 PM 40.3°F4.6°C 36.1°F2.3°C 85% 6.8 mph NNE10.9 kmh NNE 9.0 mph14.5 kmh 29.50 in999.0 mb 0.00 in0.0 mm 0.00 in0.0 mm 0.00 in0.0 mm
08:45 PM 40.3°F4.6°C 36.1°F2.3°C 85% 3.8 mph N6.1 kmh N 6.8 mph10.9 kmh 29.50 in999.0 mb 0.00 in0.0 mm 0.00 in0.0 mm 0.00 in0.0 mm
08:50 PM 40.3°F4.6°C 36.4°F2.4°C 86% 4.1 mph NE6.6 kmh NE 7.9 mph12.7 kmh 29.50 in999.0 mb 0.00 in0.0 mm 0.00 in0.0 mm 0.00 in0.0 mm
08:55 PM 40.3°F4.6°C 36.4°F2.4°C 86% 4.6 mph NE7.4 kmh NE 7.9 mph12.7 kmh 29.50 in999.0 mb 0.00 in0.0 mm 0.00 in0.0 mm 0.00 in0.0 mm
09:00 PM 40.3°F4.6°C 36.4°F2.4°C 86% 3.5 mph NNE5.6 kmh NNE 7.1 mph11.4 kmh 29.50 in999.0 mb 0.00 in0.0 mm 0.00 in0.0 mm 0.00 in0.0 mm
09:05 PM 40.3°F4.6°C 36.4°F2.4°C 86% 7.4 mph N11.9 kmh N 7.4 mph11.9 kmh 29.50 in999.0 mb 0.00 in0.0 mm 0.00 in0.0 mm 0.00 in0.0 mm
09:10 PM 40.1°F4.5°C 36.2°F2.3°C 86% 3.8 mph N6.1 kmh N 7.9 mph12.7 kmh 29.50 in999.0 mb 0.00 in0.0 mm 0.00 in0.0 mm 0.00 in0.0 mm
09:15 PM 40.1°F4.5°C 36.2°F2.3°C 86% 6.0 mph N9.7 kmh N 9.6 mph15.4 kmh 29.50 in999.0 mb 0.00 in0.0 mm 0.00 in0.0 mm 0.00 in0.0 mm
09:20 PM 39.9°F4.4°C 36.1°F2.3°C 86% 2.5 mph NNE4.0 kmh NNE 9.6 mph15.4 kmh 29.50 in999.0 mb 0.00 in0.0 mm 0.00 in0.0 mm 0.00 in0.0 mm
09:25 PM 39.9°F4.4°C 36.1°F2.3°C 86% 3.0 mph NE4.8 kmh NE 6.0 mph9.7 kmh 29.50 in999.0 mb 0.00 in0.0 mm 0.00 in0.0 mm 0.00 in0.0 mm
09:30 PM 39.9°F4.4°C 36.4°F2.4°C 87% 4.4 mph NE7.1 kmh NE 4.9 mph7.9 kmh 29.50 in999.0 mb 0.00 in0.0 mm 0.00 in0.0 mm 0.00 in0.0 mm
09:35 PM 39.9°F4.4°C 36.4°F2.4°C 87% 1.9 mph NNE3.1 kmh NNE 4.9 mph7.9 kmh 29.50 in999.0 mb 0.00 in0.0 mm 0.00 in0.0 mm 0.00 in0.0 mm
09:40 PM 39.7°F4.3°C 36.2°F2.3°C 87% 4.1 mph NNE6.6 kmh NNE 5.7 mph9.2 kmh 29.50 in999.0 mb 0.00 in0.0 mm 0.00 in0.0 mm 0.00 in0.0 mm
09:45 PM 39.9°F4.4°C 36.4°F2.4°C 87% 5.7 mph N9.2 kmh N 7.4 mph11.9 kmh 29.50 in999.0 mb 0.00 in0.0 mm 0.00 in0.0 mm 0.00 in0.0 mm
09:50 PM 39.9°F4.4°C 36.4°F2.4°C 87% 4.1 mph N6.6 kmh N 7.6 mph12.2 kmh 29.50 in999.0 mb 0.00 in0.0 mm 0.00 in0.0 mm 0.00 in0.0 mm
09:55 PM 40.1°F4.5°C 36.5°F2.5°C 87% 4.9 mph N7.9 kmh N 7.6 mph12.2 kmh 29.50 in999.0 mb 0.00 in0.0 mm 0.00 in0.0 mm 0.00 in0.0 mm
10:00 PM 40.1°F4.5°C 36.5°F2.5°C 87% 4.1 mph N6.6 kmh N 7.4 mph11.9 kmh 29.50 in999.0 mb 0.00 in0.0 mm 0.00 in0.0 mm 0.00 in0.0 mm
10:05 PM 39.9°F4.4°C 36.4°F2.4°C 87% 6.0 mph NNW9.7 kmh NNW 7.6 mph12.2 kmh 29.50 in999.0 mb 0.00 in0.0 mm 0.00 in0.0 mm 0.00 in0.0 mm
10:10 PM 39.9°F4.4°C 36.4°F2.4°C 87% 3.8 mph NW6.1 kmh NW 7.6 mph12.2 kmh 29.50 in999.0 mb 0.00 in0.0 mm 0.00 in0.0 mm 0.00 in0.0 mm
10:15 PM 40.1°F4.5°C 36.5°F2.5°C 87% 4.4 mph NW7.1 kmh NW 9.6 mph15.4 kmh 29.47 in998.0 mb 0.00 in0.0 mm 0.00 in0.0 mm 0.00 in0.0 mm
10:20 PM 40.1°F4.5°C 36.5°F2.5°C 87% 5.7 mph NW9.2 kmh NW 9.6 mph15.4 kmh 29.47 in998.0 mb 0.00 in0.0 mm 0.00 in0.0 mm 0.00 in0.0 mm
10:25 PM 40.1°F4.5°C 36.2°F2.3°C 86% 1.9 mph NNW3.1 kmh NNW 7.4 mph11.9 kmh 29.47 in998.0 mb 0.00 in0.0 mm 0.00 in0.0 mm 0.00 in0.0 mm
10:30 PM 40.1°F4.5°C 36.2°F2.3°C 86% 3.5 mph N5.6 kmh N 7.4 mph11.9 kmh 29.47 in998.0 mb 0.00 in0.0 mm 0.00 in0.0 mm 0.00 in0.0 mm
10:35 PM 40.3°F4.6°C 36.7°F2.6°C 87% 4.4 mph N7.1 kmh N 7.9 mph12.7 kmh 29.47 in998.0 mb 0.00 in0.0 mm 0.00 in0.0 mm 0.00 in0.0 mm
10:40 PM 40.3°F4.6°C 36.7°F2.6°C 87% 3.8 mph NNE6.1 kmh NNE 7.9 mph12.7 kmh 29.45 in997.3 mb 0.00 in0.0 mm 0.00 in0.0 mm 0.00 in0.0 mm
10:45 PM 40.1°F4.5°C 36.5°F2.5°C 87% 7.4 mph NNE11.9 kmh NNE 7.4 mph11.9 kmh 29.45 in997.3 mb 0.00 in0.0 mm 0.00 in0.0 mm 0.00 in0.0 mm
10:50 PM 40.1°F4.5°C 36.5°F2.5°C 87% 4.1 mph N6.6 kmh N 7.4 mph11.9 kmh 29.45 in997.3 mb 0.00 in0.0 mm 0.00 in0.0 mm 0.00 in0.0 mm
10:55 PM 40.1°F4.5°C 36.5°F2.5°C 87% 3.8 mph N6.1 kmh N 6.8 mph10.9 kmh 29.45 in997.3 mb 0.00 in0.0 mm 0.00 in0.0 mm 0.00 in0.0 mm
11:00 PM 40.1°F4.5°C 36.5°F2.5°C 87% 4.6 mph N7.4 kmh N 6.8 mph10.9 kmh 29.45 in997.3 mb 0.00 in0.0 mm 0.00 in0.0 mm 0.00 in0.0 mm
11:05 PM 40.1°F4.5°C 36.5°F2.5°C 87% 7.9 mph NNE12.7 kmh NNE 7.9 mph12.7 kmh 29.45 in997.3 mb 0.00 in0.0 mm 0.00 in0.0 mm 0.00 in0.0 mm
11:10 PM 40.1°F4.5°C 36.8°F2.7°C 88% 7.1 mph NNE11.4 kmh NNE 7.9 mph12.7 kmh 29.45 in997.3 mb 0.00 in0.0 mm 0.00 in0.0 mm 0.00 in0.0 mm
11:15 PM 40.1°F4.5°C 36.8°F2.7°C 88% 4.6 mph NNE7.4 kmh NNE 7.1 mph11.4 kmh 29.45 in997.3 mb 0.00 in0.0 mm 0.00 in0.0 mm 0.00 in0.0 mm
11:20 PM 40.1°F4.5°C 36.8°F2.7°C 88% 3.8 mph NNE6.1 kmh NNE 7.1 mph11.4 kmh 29.45 in997.3 mb 0.00 in0.0 mm 0.00 in0.0 mm 0.00 in0.0 mm
11:25 PM 40.1°F4.5°C 36.8°F2.7°C 88% 3.5 mph N5.6 kmh N 5.2 mph8.4 kmh 29.45 in997.3 mb 0.00 in0.0 mm 0.00 in0.0 mm 0.00 in0.0 mm
11:30 PM 40.1°F4.5°C 36.8°F2.7°C 88% 4.6 mph N7.4 kmh N 5.2 mph8.4 kmh 29.45 in997.3 mb 0.00 in0.0 mm 0.00 in0.0 mm 0.00 in0.0 mm
11:35 PM 40.1°F4.5°C 36.8°F2.7°C 88% 9.6 mph NNE15.4 kmh NNE 9.6 mph15.4 kmh 29.45 in997.3 mb 0.00 in0.0 mm 0.00 in0.0 mm 0.00 in0.0 mm
11:40 PM 40.3°F4.6°C 37.0°F2.8°C 88% 5.7 mph NNE9.2 kmh NNE 9.6 mph15.4 kmh 29.45 in997.3 mb 0.00 in0.0 mm 0.00 in0.0 mm 0.00 in0.0 mm
11:45 PM 40.3°F4.6°C 37.0°F2.8°C 88% 3.0 mph NE4.8 kmh NE 9.6 mph15.4 kmh 29.45 in997.3 mb 0.00 in0.0 mm 0.00 in0.0 mm 0.00 in0.0 mm
11:50 PM 40.3°F4.6°C 37.0°F2.8°C 88% 6.5 mph N10.5 kmh N 6.5 mph10.5 kmh 29.45 in997.3 mb 0.00 in0.0 mm 0.00 in0.0 mm 0.00 in0.0 mm
11:55 PM 40.5°F4.7°C 37.2°F2.9°C 88% 3.0 mph N4.8 kmh N 6.5 mph10.5 kmh 29.45 in997.3 mb 0.00 in0.0 mm 0.00 in0.0 mm 0.00 in0.0 mm